Time;durP1;ratioP1;P1;durP2;ratioP2;P2;SDS_P1;SDS_P2;PMS_P1;PMS_P2;Temp;Humidity;BMP_temperature;BMP_pressure;BME280_temperature;BME280_humidity;BME280_pressure;Samples;Min_cycle;Max_cycle;Signal;HPM_P1;HPM_P2
2021/01/15 00:01:22;;;;;;;12.90;9.38;;;;;;;6.78;45.53;98597.07;1755048;81;21178;-63
2021/01/15 00:03:50;;;;;;;15.53;10.37;;;;;;;6.77;45.53;98598.05;1748588;81;21646;-63
2021/01/15 00:06:23;;;;;;;11.90;8.75;;;;;;;6.76;45.51;98600.38;1735895;81;21593;-64
2021/01/15 00:08:51;;;;;;;12.40;9.88;;;;;;;6.76;45.49;98599.53;1728398;81;21148;-63
2021/01/15 00:11:23;;;;;;;13.60;9.58;;;;;;;6.75;45.45;98603.19;1730031;81;21375;-63
2021/01/15 00:13:51;;;;;;;13.15;9.18;;;;;;;6.72;45.44;98603.02;1740876;81;21631;-63
2021/01/15 00:16:24;;;;;;;12.33;9.43;;;;;;;6.73;45.42;98609.13;1731838;81;21608;-63
2021/01/15 00:18:52;;;;;;;;;;;;;;;6.71;45.38;98607.98;1744249;81;21625;-63
2021/01/15 00:21:26;;;;;;;13.68;9.98;;;;;;;6.69;45.34;98610.78;1752077;81;20272;-63
2021/01/15 00:23:56;;;;;;;14.50;9.33;;;;;;;6.61;45.43;98607.37;1744488;81;21212;-63
2021/01/15 00:26:26;;;;;;;13.25;8.93;;;;;;;6.60;45.42;98606.52;1751560;80;21201;-62
2021/01/15 00:28:54;;;;;;;12.33;9.53;;;;;;;6.61;45.40;98607.37;1752696;81;21182;-63
2021/01/15 00:31:31;;;;;;;12.45;8.58;;;;;;;6.61;45.35;98605.55;1755024;81;21169;-64
2021/01/15 00:33:59;;;;;;;11.93;9.00;;;;;;;6.62;45.32;98607.67;1741302;81;21189;-63
2021/01/15 00:36:27;;;;;;;11.57;8.25;;;;;;;6.61;45.31;98608.69;1733078;81;21254;-64
2021/01/15 00:38:54;;;;;;;12.30;8.55;;;;;;;6.60;45.26;98609.16;1714646;81;21090;-63
2021/01/15 00:41:21;;;;;;;11.83;8.65;;;;;;;6.59;45.26;98608.84;1727333;81;21159;-63
2021/01/15 00:43:49;;;;;;;12.68;8.75;;;;;;;6.60;45.23;98613.63;1707200;83;21138;-62
2021/01/15 00:46:32;;;;;;;11.10;8.38;;;;;;;6.59;45.26;98610.67;1723870;83;21161;-63
2021/01/15 00:49:08;;;;;;;13.18;9.23;;;;;;;6.58;45.19;98617.75;1719565;82;21267;-63
2021/01/15 00:51:36;;;;;;;12.10;8.48;;;;;;;6.58;45.21;98616.93;1729324;81;26759;-64
2021/01/15 00:54:04;;;;;;;12.93;8.80;;;;;;;6.57;45.18;98619.26;1749756;81;21157;-63
2021/01/15 00:56:32;;;;;;;11.10;8.43;;;;;;;6.57;45.17;98616.11;1709795;82;21633;-63
2021/01/15 00:59:00;;;;;;;12.90;8.93;;;;;;;6.56;45.12;98613.64;1741409;81;21174;-64
2021/01/15 01:01:30;;;;;;;12.78;8.83;;;;;;;6.55;45.11;98611.50;1738477;81;21397;-63
2021/01/15 01:03:58;;;;;;;12.68;9.60;;;;;;;6.56;45.07;98614.96;1719529;82;21182;-63
2021/01/15 01:06:25;;;;;;;11.15;7.92;;;;;;;6.54;45.08;98616.95;1742229;81;21161;-62
2021/01/15 01:08:52;;;;;;;11.90;8.50;;;;;;;6.54;45.05;98624.36;1733488;81;21152;-63
2021/01/15 01:11:22;;;;;;;10.95;7.90;;;;;;;6.53;45.01;98625.36;1728032;81;21135;-64
2021/01/15 01:13:52;;;;;;;11.70;8.48;;;;;;;6.53;45.00;98624.52;1728334;81;21373;-65
2021/01/15 01:16:20;;;;;;;12.90;8.60;;;;;;;6.52;44.98;98626.84;1730363;81;21216;-66
2021/01/15 01:18:48;;;;;;;13.28;9.20;;;;;;;6.51;44.96;98628.67;1726107;81;21129;-63
2021/01/15 01:21:16;;;;;;;10.93;8.33;;;;;;;6.50;44.94;98626.51;1728707;81;21157;-62
2021/01/15 01:23:43;;;;;;;11.03;7.70;;;;;;;6.50;44.91;98631.78;1736303;81;21145;-64
2021/01/15 01:26:11;;;;;;;10.78;7.92;;;;;;;6.50;44.86;98629.66;1746399;80;21477;-65
2021/01/15 01:28:42;;;;;;;10.88;8.30;;;;;;;6.49;44.86;98634.11;1732000;81;21177;-64
2021/01/15 01:31:12;;;;;;;11.22;8.68;;;;;;;6.50;44.80;98633.61;1730447;81;21212;-62
2021/01/15 01:33:39;;;;;;;11.95;8.50;;;;;;;6.50;44.80;98628.33;1738551;81;21178;-62
2021/01/15 01:36:07;;;;;;;12.00;8.33;;;;;;;6.49;44.78;98634.11;1727384;81;21148;-63
2021/01/15 01:38:35;;;;;;;11.48;8.53;;;;;;;6.49;44.78;98634.11;1717936;83;21452;-62
2021/01/15 01:41:02;;;;;;;11.93;8.28;;;;;;;6.48;44.74;98638.23;1753842;81;21184;-63
2021/01/15 01:43:30;;;;;;;10.55;7.75;;;;;;;6.48;44.72;98639.05;1755061;81;21161;-64
2021/01/15 01:46:00;;;;;;;11.85;7.97;;;;;;;6.47;44.70;98644.48;1756163;81;21168;-63
2021/01/15 01:48:28;;;;;;;12.43;8.88;;;;;;;6.45;44.66;98647.31;1754669;80;21221;-64
2021/01/15 01:50:56;;;;;;;10.85;8.33;;;;;;;6.47;44.64;98655.04;1753983;81;22663;-64
2021/01/15 01:53:27;;;;;;;12.82;8.70;;;;;;;6.46;44.62;98648.95;1756047;81;21200;-63
2021/01/15 01:55:54;;;;;;;10.48;7.85;;;;;;;6.45;44.59;98653.91;1755130;81;21129;-64
2021/01/15 01:58:22;;;;;;;10.58;7.53;;;;;;;6.45;44.58;98654.39;1756057;81;21193;-64
2021/01/15 02:00:53;;;;;;;11.25;8.30;;;;;;;6.43;44.55;98653.26;1730844;81;22000;-64
2021/01/15 02:03:20;;;;;;;11.60;7.65;;;;;;;6.43;44.54;98655.05;1748173;81;21255;-63
2021/01/15 02:05:48;;;;;;;12.03;8.08;;;;;;;6.42;44.54;98650.28;1751843;81;21162;-64
2021/01/15 02:08:17;;;;;;;12.30;9.25;;;;;;;6.42;44.53;98652.10;1752309;81;21165;-63
2021/01/15 02:10:55;;;;;;;12.05;8.08;;;;;;;6.42;44.51;98653.42;1747470;81;21156;-64
2021/01/15 02:13:36;;;;;;;13.78;9.13;;;;;;;6.41;44.46;98653.08;1755118;81;21117;-63
2021/01/15 02:16:14;;;;;;;12.53;8.48;;;;;;;6.40;44.48;98653.58;1754960;81;22290;-63
2021/01/15 02:19:08;;;;;;;11.10;8.18;;;;;;;6.38;44.48;98646.84;1744314;81;21173;-65
2021/01/15 02:22:03;;;;;;;12.33;8.15;;;;;;;6.37;44.47;98654.41;1738588;81;21168;-63
2021/01/15 02:24:39;;;;;;;10.68;7.60;;;;;;;6.34;44.45;98654.26;1738414;81;21145;-62
2021/01/15 02:27:24;;;;;;;13.15;8.73;;;;;;;6.32;44.46;98652.29;1726115;81;21176;-65
2021/01/15 02:30:42;;;;;;;11.50;8.00;;;;;;;6.31;44.44;98654.58;1754761;81;21458;-64
2021/01/15 02:33:36;;;;;;;11.18;7.75;;;;;;;6.27;44.43;98655.41;1712278;82;21209;-64
2021/01/15 02:36:32;;;;;;;;;;;;;;;6.25;44.44;98656.58;1714682;83;21584;-64
2021/01/15 02:39:20;;;;;;;9.53;7.00;;;;;;;6.22;44.44;98655.58;1735021;81;20281;-65
2021/01/15 02:41:47;;;;;;;9.68;7.60;;;;;;;6.12;44.56;98658.39;1746776;81;21197;-63
2021/01/15 02:44:15;;;;;;;9.95;7.37;;;;;;;6.12;44.57;98664.98;1732924;81;22293;-64
2021/01/15 02:46:56;;;;;;;10.45;7.85;;;;;;;6.13;44.55;98665.33;1756225;81;21166;-63
2021/01/15 02:49:24;;;;;;;11.50;7.62;;;;;;;6.13;44.51;98666.64;1712682;82;21634;-63
2021/01/15 02:51:51;;;;;;;10.08;7.33;;;;;;;6.12;44.50;98675.53;1727922;81;21202;-64
2021/01/15 02:54:18;;;;;;;10.18;7.35;;;;;;;6.12;44.44;98673.39;1727232;81;21129;-63
2021/01/15 02:56:46;;;;;;;11.18;8.13;;;;;;;6.13;44.41;98679.02;1756274;81;22370;-65
2021/01/15 02:59:13;;;;;;;11.03;7.97;;;;;;;6.13;44.40;98679.02;1745940;81;21201;-63
2021/01/15 03:04:52;;;;;;;11.30;8.53;;;;;;;6.17;44.32;98679.00;1833203;75;27601;-64
2021/01/15 03:07:20;;;;;;;10.18;8.08;;;;;;;6.07;44.37;98683.13;1776980;78;21646;-64
2021/01/15 03:09:47;;;;;;;11.12;7.17;;;;;;;6.08;44.35;98684.77;1781178;78;21374;-64
2021/01/15 03:12:14;;;;;;;10.13;7.22;;;;;;;6.08;44.30;98686.92;1782119;78;21173;-62
2021/01/15 03:14:43;;;;;;;10.45;7.05;;;;;;;6.09;44.28;98683.78;1785457;78;21194;-62
2021/01/15 03:17:10;;;;;;;9.48;7.12;;;;;;;6.08;44.22;98681.66;1781792;78;21154;-64
2021/01/15 03:19:40;;;;;;;9.88;6.90;;;;;;;6.10;44.20;98686.73;1807086;78;21150;-63
2021/01/15 03:22:18;;;;;;;9.08;6.72;;;;;;;6.09;44.17;98691.70;1782784;79;21359;-64
2021/01/15 03:24:54;;;;;;;10.15;6.87;;;;;;;6.09;44.13;98691.20;1808458;78;21186;-63
2021/01/15 03:27:23;;;;;;;10.30;6.97;;;;;;;6.09;44.09;98698.30;1786676;77;21166;-63
2021/01/15 03:29:50;;;;;;;9.88;6.58;;;;;;;6.08;44.06;98704.06;1775141;79;21611;-63
2021/01/15 03:32:17;;;;;;;10.18;7.12;;;;;;;6.09;44.01;98704.88;1778974;79;21598;-64
2021/01/15 03:34:45;;;;;;;9.80;6.62;;;;;;;6.08;43.97;98701.43;1767676;79;21374;-62
2021/01/15 03:37:12;;;;;;;11.48;7.28;;;;;;;6.08;43.96;98703.22;1783809;79;21190;-62
2021/01/15 03:39:40;;;;;;;9.75;7.55;;;;;;;6.08;43.92;98709.81;1781466;77;21153;-63
2021/01/15 03:42:07;;;;;;;9.73;6.72;;;;;;;6.08;43.88;98717.25;1799457;77;21164;-62
2021/01/15 03:44:35;;;;;;;10.82;8.10;;;;;;;6.05;43.84;98713.61;1799974;77;21660;-63
2021/01/15 03:47:04;;;;;;;8.93;7.20;;;;;;;6.08;43.79;98715.94;1804379;79;21191;-62
2021/01/15 03:49:31;;;;;;;11.65;7.75;;;;;;;6.09;43.77;98717.56;1805606;77;21161;-62
2021/01/15 03:51:59;;;;;;;10.48;7.62;;;;;;;6.07;43.71;98718.23;1775507;78;21182;-64
2021/01/15 03:54:26;;;;;;;11.97;7.72;;;;;;;6.08;43.70;98726.48;1785565;78;21182;-63
2021/01/15 03:56:54;;;;;;;9.95;6.95;;;;;;;6.06;43.68;98721.84;1776114;77;21633;-63
2021/01/15 03:59:21;;;;;;;9.45;6.85;;;;;;;6.05;43.63;98718.89;1791253;78;21192;-63
2021/01/15 04:01:49;;;;;;;10.65;7.33;;;;;;;6.05;43.60;98716.75;1776576;78;21140;-64
2021/01/15 04:04:16;;;;;;;11.40;6.67;;;;;;;6.05;43.55;98720.20;1776275;78;21598;-63
2021/01/15 04:06:44;;;;;;;9.53;6.10;;;;;;;6.04;43.55;98722.50;1772909;79;21166;-65
2021/01/15 04:09:11;;;;;;;9.95;7.53;;;;;;;6.03;43.50;98722.69;1771646;79;21137;-64
2021/01/15 04:11:39;;;;;;;8.18;6.22;;;;;;;6.03;43.48;98724.00;1776157;79;21350;-64
2021/01/15 04:14:06;;;;;;;7.95;6.12;;;;;;;6.01;43.46;98725.48;1784148;79;21146;-64
2021/01/15 04:16:34;;;;;;;9.45;6.80;;;;;;;5.96;43.45;98717.23;1772237;79;21583;-66
2021/01/15 04:19:02;;;;;;;9.18;6.42;;;;;;;6.00;43.41;98725.13;1762727;79;21186;-64
2021/01/15 04:21:29;;;;;;;8.68;6.45;;;;;;;6.00;43.36;98735.67;1777568;79;21229;-63
2021/01/15 04:23:56;;;;;;;10.18;6.47;;;;;;;5.99;43.34;98731.41;1776220;79;23602;-63
2021/01/15 04:26:24;;;;;;;9.95;6.67;;;;;;;5.99;43.35;98734.52;1787778;78;21655;-64
2021/01/15 04:28:52;;;;;;;9.50;6.45;;;;;;;5.96;43.34;98727.77;1792003;79;21186;-64
2021/01/15 04:31:19;;;;;;;8.08;6.05;;;;;;;5.96;43.32;98733.55;1776710;77;21669;-63
2021/01/15 04:33:48;;;;;;;11.55;7.17;;;;;;;5.96;43.31;98733.55;1772896;79;21134;-64
2021/01/15 04:36:15;;;;;;;8.20;5.65;;;;;;;5.95;43.24;98736.68;1782554;79;21355;-63
2021/01/15 04:38:43;;;;;;;10.90;7.05;;;;;;;5.94;43.22;98740.27;1793314;79;21996;-63
2021/01/15 04:41:11;;;;;;;8.63;5.87;;;;;;;5.94;43.24;98743.40;1780507;79;21094;-64
2021/01/15 04:43:39;;;;;;;8.75;6.30;;;;;;;5.94;43.18;98744.72;1800656;77;21149;-63
2021/01/15 04:46:07;;;;;;;9.48;5.87;;;;;;;5.92;43.15;98747.51;1784736;79;21174;-63
2021/01/15 04:48:36;;;;;;;9.18;6.70;;;;;;;5.92;43.14;98752.78;1765584;79;22103;-63
2021/01/15 04:51:04;;;;;;;9.10;6.83;;;;;;;5.91;43.08;98753.78;1785831;77;21183;-63
2021/01/15 04:53:31;;;;;;;8.73;6.47;;;;;;;5.90;43.06;98757.39;1766159;79;21400;-63
2021/01/15 04:55:59;;;;;;;9.90;6.92;;;;;;;5.88;43.05;98763.32;1754733;79;21118;-63
2021/01/15 04:58:31;;;;;;;9.88;7.05;;;;;;;5.88;43.02;98767.28;1779511;79;21091;-63
2021/01/15 05:00:58;;;;;;;10.08;6.95;;;;;;;5.86;42.99;98774.02;1781186;79;21361;-63
2021/01/15 05:03:26;;;;;;;9.38;6.78;;;;;;;5.84;42.97;98773.36;1785994;79;21155;-62
2021/01/15 05:05:59;;;;;;;10.03;6.37;;;;;;;5.83;42.94;98777.00;1781640;79;21155;-63
2021/01/15 05:08:28;;;;;;;9.40;6.22;;;;;;;5.83;42.94;98774.83;1798033;79;21126;-63
2021/01/15 05:10:56;;;;;;;9.20;6.08;;;;;;;5.82;42.91;98775.33;1772957;77;21183;-64
2021/01/15 05:13:24;;;;;;;8.58;6.22;;;;;;;5.82;42.87;98786.38;1788569;79;21194;-64
2021/01/15 05:15:55;;;;;;;10.05;6.60;;;;;;;5.79;42.88;98782.23;1792600;77;21634;-63
2021/01/15 05:18:23;;;;;;;9.38;6.75;;;;;;;5.79;42.88;98782.23;1760324;79;21167;-64
2021/01/15 05:20:51;;;;;;;9.43;6.35;;;;;;;5.77;42.83;98780.25;1774153;79;21642;-63
2021/01/15 05:23:18;;;;;;;8.50;6.08;;;;;;;5.78;42.82;98777.15;1754731;79;21178;-64
2021/01/15 05:25:47;;;;;;;10.48;7.30;;;;;;;5.77;42.82;98782.07;1790479;79;21669;-63
2021/01/15 05:28:15;;;;;;;8.65;6.40;;;;;;;5.77;42.79;98787.34;1760675;79;21171;-63
2021/01/15 05:30:42;;;;;;;10.32;6.37;;;;;;;5.75;42.76;98793.27;1773042;77;21150;-63
2021/01/15 05:33:14;;;;;;;8.90;6.40;;;;;;;5.75;42.73;98794.59;1789091;79;21138;-63
2021/01/15 05:35:53;;;;;;;9.33;6.65;;;;;;;5.74;42.73;98806.09;1787925;79;21635;-63
2021/01/15 05:38:21;;;;;;;10.23;7.20;;;;;;;5.73;42.73;98803.97;1781443;79;21380;-66
2021/01/15 05:40:51;;;;;;;10.38;6.92;;;;;;;5.73;42.69;98811.87;1791351;79;21118;-63
2021/01/15 05:43:26;;;;;;;10.93;6.85;;;;;;;5.70;42.69;98808.25;1773517;79;21118;-63
2021/01/15 05:46:18;;;;;;;8.80;6.47;;;;;;;5.70;42.70;98813.52;1773465;79;21639;-62
2021/01/15 05:48:53;;;;;;;9.90;7.28;;;;;;;5.68;42.68;98815.50;1800518;79;21103;-62
2021/01/15 05:51:33;;;;;;;14.43;7.80;;;;;;;5.65;42.68;98819.25;1794090;78;21352;-62
2021/01/15 05:54:02;;;;;;;9.13;7.10;;;;;;;5.63;42.66;98818.59;1783854;79;21139;-63
2021/01/15 05:56:44;;;;;;;9.98;6.42;;;;;;;5.62;42.67;98818.27;1763485;79;21163;-62
2021/01/15 05:59:16;;;;;;;9.70;6.87;;;;;;;5.61;42.65;98813.16;1766621;79;21203;-63
2021/01/15 06:01:58;;;;;;;11.38;7.28;;;;;;;5.59;42.66;98815.94;1785814;77;21170;-63
2021/01/15 06:04:35;;;;;;;10.55;7.60;;;;;;;5.58;42.64;98816.94;1763328;77;21378;-62
2021/01/15 06:07:14;;;;;;;9.48;6.70;;;;;;;5.57;42.63;98823.69;1758359;77;21154;-63
2021/01/15 06:09:44;;;;;;;9.28;6.90;;;;;;;5.56;42.63;98824.16;1761832;79;21641;-63
2021/01/15 06:12:14;;;;;;;10.30;7.10;;;;;;;5.56;42.64;98820.70;1790101;79;21126;-64
2021/01/15 06:14:57;;;;;;;9.65;6.90;;;;;;;5.56;42.62;98830.73;1783229;79;21183;-64
2021/01/15 06:17:25;;;;;;;11.00;7.50;;;;;;;5.55;42.61;98833.55;1771948;77;21385;-64
2021/01/15 06:20:01;;;;;;;10.80;7.30;;;;;;;5.55;42.54;98838.33;1794209;79;21162;-63
2021/01/15 06:22:36;;;;;;;9.53;7.40;;;;;;;5.54;42.56;98839.80;1787892;77;21195;-64
2021/01/15 06:25:33;;;;;;;10.10;6.92;;;;;;;5.53;42.56;98842.92;1779394;79;21781;-64
2021/01/15 06:28:09;;;;;;;8.80;6.58;;;;;;;5.52;42.54;98842.58;1790327;77;22016;-64
2021/01/15 06:30:37;;;;;;;9.43;6.35;;;;;;;5.50;42.53;98846.71;1776505;79;21367;-64
2021/01/15 06:33:13;;;;;;;11.00;6.87;;;;;;;5.50;42.53;98849.34;1768239;77;21147;-64
2021/01/15 06:35:43;;;;;;;10.15;7.55;;;;;;;5.50;42.47;98852.45;1786397;79;21567;-63
2021/01/15 06:38:17;;;;;;;9.28;7.12;;;;;;;5.50;42.46;98862.98;1778586;79;21150;-64
2021/01/15 06:40:48;;;;;;;13.32;7.30;;;;;;;5.49;42.43;98861.36;1764500;78;21187;-64
2021/01/15 06:43:30;;;;;;;10.32;6.80;;;;;;;5.48;42.40;98863.14;1781467;79;22077;-63
2021/01/15 06:46:02;;;;;;;11.12;7.53;;;;;;;5.48;42.40;98872.86;1786757;79;21158;-63
2021/01/15 06:48:34;;;;;;;11.48;7.72;;;;;;;5.47;42.36;98874.67;1761134;79;21162;-64
2021/01/15 06:51:02;;;;;;;10.45;7.72;;;;;;;5.47;42.33;98879.95;1785153;79;21306;-63
2021/01/15 06:53:33;;;;;;;11.65;7.60;;;;;;;5.47;42.31;98876.49;1761211;77;21216;-63
2021/01/15 06:56:06;;;;;;;11.33;8.03;;;;;;;5.47;42.27;98884.39;1785083;79;21377;-63
2021/01/15 06:58:41;;;;;;;10.90;7.65;;;;;;;5.47;42.25;98880.45;1791340;77;21166;-63
2021/01/15 07:01:34;;;;;;;10.03;7.45;;;;;;;5.47;42.20;98885.22;1787186;79;21610;-64
2021/01/15 07:04:27;;;;;;;11.63;7.73;;;;;;;5.47;42.20;98889.66;1801227;78;21184;-64
2021/01/15 07:07:15;;;;;;;11.53;7.92;;;;;;;5.48;42.13;98891.30;1746834;82;21177;-64
2021/01/15 07:09:46;;;;;;;9.23;7.15;;;;;;;5.46;42.13;98895.91;1760699;80;21354;-63
2021/01/15 07:12:19;;;;;;;9.85;7.65;;;;;;;5.44;42.11;98897.37;1724805;82;21661;-65
2021/01/15 07:14:57;;;;;;;11.63;8.33;;;;;;;5.45;42.06;98895.58;1721795;82;28800;-65
2021/01/15 07:17:34;;;;;;;10.95;7.72;;;;;;;5.45;42.03;98900.85;1790017;78;21169;-64
2021/01/15 07:20:19;;;;;;;10.63;7.15;;;;;;;5.45;41.99;98899.03;1790576;78;21149;-65
2021/01/15 07:23:00;;;;;;;11.53;7.72;;;;;;;5.46;41.97;98911.70;1789709;77;21566;-64
2021/01/15 07:25:27;;;;;;;11.18;7.60;;;;;;;5.46;41.91;98916.47;1788540;77;21210;-62
2021/01/15 07:27:56;;;;;;;12.18;8.63;;;;;;;5.46;41.87;98920.92;1799969;78;21134;-63
2021/01/15 07:30:28;;;;;;;10.98;8.10;;;;;;;5.47;41.83;98926.55;1805707;77;21229;-64
2021/01/15 07:32:58;;;;;;;10.15;8.08;;;;;;;5.49;41.77;98931.16;1797096;77;21178;-64
2021/01/15 07:35:29;;;;;;;11.28;7.95;;;;;;;5.51;41.73;98935.78;1800153;78;21586;-63
2021/01/15 07:38:16;;;;;;;11.03;6.95;;;;;;;5.53;41.67;98938.27;1803455;78;21139;-63
2021/01/15 07:40:43;;;;;;;11.73;8.23;;;;;;;5.54;41.62;98932.83;1804242;78;21563;-64
2021/01/15 07:43:31;;;;;;;11.10;8.13;;;;;;;5.55;41.58;98945.53;1792151;78;21192;-64
2021/01/15 07:46:01;;;;;;;11.95;8.08;;;;;;;5.57;41.52;98940.43;1787370;77;21209;-64
2021/01/15 07:48:29;;;;;;;11.83;8.00;;;;;;;5.58;41.46;98944.73;1798220;77;21348;-64
2021/01/15 07:50:57;;;;;;;12.63;8.10;;;;;;;5.61;41.39;98955.44;1787962;78;21223;-63
2021/01/15 07:53:30;;;;;;;13.53;8.35;;;;;;;5.63;41.33;98957.42;1816942;77;21100;-64
2021/01/15 07:55:59;;;;;;;11.65;8.08;;;;;;;5.64;41.26;98958.59;1746696;82;21162;-62
2021/01/15 07:58:39;;;;;;;11.53;8.08;;;;;;;5.67;41.22;98962.72;1814233;78;21552;-63
2021/01/15 08:01:08;;;;;;;14.50;8.40;;;;;;;5.70;41.15;98970.33;1787636;78;21366;-64
2021/01/15 08:03:41;;;;;;;12.10;8.33;;;;;;;5.73;41.10;98971.81;1742727;82;21191;-63
2021/01/15 08:06:11;;;;;;;;;;;;;;;5.75;41.03;98975.94;1763793;80;21131;-64
2021/01/15 08:09:03;;;;;;;11.95;8.00;;;;;;;5.77;40.96;98980.56;1761327;80;20325;-65
2021/01/15 08:11:34;;;;;;;11.25;7.67;;;;;;;5.72;41.02;98986.81;1764973;80;21155;-63
2021/01/15 08:14:20;;;;;;;10.43;8.03;;;;;;;5.75;40.95;98986.48;1788264;80;22207;-63
2021/01/15 08:16:48;;;;;;;11.03;8.08;;;;;;;5.77;40.88;98990.28;1763062;80;21159;-63
2021/01/15 08:19:18;;;;;;;12.25;8.40;;;;;;;5.80;40.85;99019.80;1798450;78;21222;-62
2021/01/15 08:21:46;;;;;;;12.82;7.67;;;;;;;5.82;41.21;99013.06;1801201;77;21211;-63
2021/01/15 08:24:13;;;;;;;11.03;7.70;;;;;;;5.85;41.48;99018.00;1798226;78;21150;-63
2021/01/15 08:26:50;;;;;;;12.03;7.67;;;;;;;5.88;41.63;99017.70;1793255;78;21261;-65
2021/01/15 08:29:24;;;;;;;10.48;7.47;;;;;;;5.91;41.73;99024.81;1798121;78;21174;-64
2021/01/15 08:31:58;;;;;;;10.08;7.22;;;;;;;5.95;41.79;99024.05;1806582;78;26299;-64
2021/01/15 08:34:33;;;;;;;11.63;7.55;;;;;;;6.00;41.85;99027.52;1768773;78;21549;-65
2021/01/15 08:37:09;;;;;;;11.10;7.78;;;;;;;6.03;41.89;99020.13;1798836;77;21141;-63
2021/01/15 08:39:53;;;;;;;10.93;7.58;;;;;;;6.08;41.93;99020.97;1800527;77;22263;-64
2021/01/15 08:42:20;;;;;;;10.58;7.08;;;;;;;6.13;41.94;99020.52;1800267;77;21153;-65
2021/01/15 08:44:50;;;;;;;10.60;6.95;;;;;;;6.16;41.95;99018.86;1793568;77;21203;-65
2021/01/15 08:47:19;;;;;;;10.90;7.62;;;;;;;6.19;41.96;99018.06;1788656;77;21575;-65
2021/01/15 08:49:56;;;;;;;10.00;7.28;;;;;;;6.24;41.96;99014.97;1796299;78;21122;-66
2021/01/15 08:52:29;;;;;;;12.60;8.33;;;;;;;6.28;41.95;99022.39;1804840;78;22176;-68
2021/01/15 08:54:57;;;;;;;12.88;7.55;;;;;;;6.34;41.96;99026.22;1810074;78;22130;-67
2021/01/15 08:57:30;;;;;;;9.63;6.90;;;;;;;6.38;41.94;99022.27;1808670;78;21121;-65
2021/01/15 09:00:11;;;;;;;9.38;6.70;;;;;;;6.43;41.93;99028.38;1793490;78;27109;-64
2021/01/15 09:02:39;;;;;;;10.95;7.67;;;;;;;6.47;41.89;99020.47;1811183;78;21118;-66
2021/01/15 09:05:10;;;;;;;10.48;7.45;;;;;;;6.52;41.88;99023.97;1797335;78;21353;-66
2021/01/15 09:07:44;;;;;;;10.55;7.22;;;;;;;6.57;41.88;99028.29;1801624;78;21137;-66
2021/01/15 09:10:13;;;;;;;10.58;8.00;;;;;;;6.59;41.86;99025.81;1805236;77;21190;-64
2021/01/15 09:12:47;;;;;;;11.30;7.15;;;;;;;6.64;41.82;99032.73;1798942;78;21165;-65
2021/01/15 09:15:25;;;;;;;9.40;7.05;;;;;;;6.69;41.80;99032.28;1805069;78;21169;-66
2021/01/15 09:17:54;;;;;;;10.53;7.25;;;;;;;6.73;41.77;99028.33;1814784;78;21251;-65
2021/01/15 09:20:21;;;;;;;11.05;7.37;;;;;;;6.77;41.76;99028.84;1808594;78;21638;-66
2021/01/15 09:22:49;;;;;;;11.35;7.70;;;;;;;6.81;41.71;99027.02;1811338;77;21551;-66
2021/01/15 09:25:17;;;;;;;9.65;6.33;;;;;;;6.83;41.69;99030.32;1809094;77;21999;-66
2021/01/15 09:27:45;;;;;;;11.28;6.90;;;;;;;6.88;41.66;99033.31;1819663;77;21165;-66
2021/01/15 09:30:14;;;;;;;10.25;7.47;;;;;;;6.93;41.65;99035.96;1818502;77;21371;-68
2021/01/15 09:32:45;;;;;;;9.23;6.92;;;;;;;6.97;41.62;99030.69;1812436;77;21614;-69
2021/01/15 09:35:14;;;;;;;9.58;7.08;;;;;;;7.01;41.58;99034.65;1803115;78;21193;-66
2021/01/15 09:37:41;;;;;;;8.75;6.00;;;;;;;7.06;41.56;99041.09;1795673;77;21157;-66
2021/01/15 09:40:09;;;;;;;9.18;6.67;;;;;;;7.11;41.50;99038.46;1797891;78;21181;-68
2021/01/15 09:42:37;;;;;;;10.58;7.80;;;;;;;7.16;41.46;99040.13;1801125;78;21194;-66
2021/01/15 09:45:06;;;;;;;9.50;6.20;;;;;;;7.20;41.41;99041.45;1811450;77;21173;-66
2021/01/15 09:47:34;;;;;;;9.48;7.20;;;;;;;7.24;41.38;99045.41;1809847;78;21205;-68
2021/01/15 09:50:04;;;;;;;10.32;6.87;;;;;;;7.28;41.34;99040.98;1801794;78;21153;-69
2021/01/15 09:52:36;;;;;;;8.48;5.95;;;;;;;7.34;41.30;99039.97;1795979;78;21196;-67
2021/01/15 09:55:04;;;;;;;8.83;6.33;;;;;;;7.39;41.25;99042.95;1797332;78;21576;-68
2021/01/15 09:57:31;;;;;;;10.08;6.87;;;;;;;7.44;41.21;99038.83;1807522;78;21349;-69
2021/01/15 09:59:59;;;;;;;9.45;6.62;;;;;;;7.51;41.15;99043.45;1800352;78;21606;-68
2021/01/15 10:02:26;;;;;;;7.72;5.83;;;;;;;7.55;41.10;99048.26;1800176;78;21171;-66
2021/01/15 10:04:53;;;;;;;9.10;6.72;;;;;;;7.63;41.04;99050.05;1809864;78;22041;-67
2021/01/15 10:07:21;;;;;;;9.23;6.03;;;;;;;7.67;40.97;99045.59;1799319;78;21457;-67
2021/01/15 10:09:49;;;;;;;7.83;5.85;;;;;;;7.75;40.91;99048.73;1789288;78;21645;-67
2021/01/15 10:12:17;;;;;;;9.93;6.75;;;;;;;7.81;40.85;99045.42;1803084;78;21222;-67
2021/01/15 10:14:45;;;;;;;9.28;6.40;;;;;;;7.87;40.75;99038.13;1803169;78;21221;-67
2021/01/15 10:17:12;;;;;;;9.05;6.47;;;;;;;7.95;40.71;99041.26;1803924;78;21166;-66
2021/01/15 10:19:41;;;;;;;9.13;6.40;;;;;;;8.02;40.63;99038.78;1797249;78;21463;-69
2021/01/15 10:22:08;;;;;;;8.73;5.53;;;;;;;8.07;40.58;99038.60;1787515;78;21172;-66
2021/01/15 10:24:36;;;;;;;8.40;6.00;;;;;;;8.13;40.55;99037.10;1797792;77;21123;-67
2021/01/15 10:27:05;;;;;;;9.38;6.55;;;;;;;8.20;40.46;99036.73;1810309;78;21146;-67
2021/01/15 10:29:33;;;;;;;7.08;5.45;;;;;;;8.26;40.43;99033.40;1814119;78;21186;-70
2021/01/15 10:32:01;;;;;;;8.88;6.53;;;;;;;8.33;40.37;99037.53;1812884;77;21365;-69
2021/01/15 10:34:30;;;;;;;8.58;5.83;;;;;;;8.38;40.33;99040.50;1798497;78;21199;-67
2021/01/15 10:36:58;;;;;;;9.50;6.42;;;;;;;8.45;40.28;99041.98;1806704;78;21197;-68
2021/01/15 10:39:25;;;;;;;9.33;6.00;;;;;;;8.50;40.23;99036.16;1813866;78;21217;-68
2021/01/15 10:41:52;;;;;;;8.35;5.92;;;;;;;8.56;40.23;99038.95;1795386;78;21984;-70
2021/01/15 10:44:21;;;;;;;8.93;6.08;;;;;;;8.65;40.18;99035.76;1798267;77;21385;-70
2021/01/15 10:46:52;;;;;;;8.03;6.00;;;;;;;8.75;40.08;99034.22;1797623;77;21561;-69
2021/01/15 10:49:22;;;;;;;7.63;5.20;;;;;;;8.85;40.00;99034.34;1774829;80;21186;-70
2021/01/15 10:51:53;;;;;;;7.90;5.67;;;;;;;8.95;39.91;99032.80;1768604;80;21127;-68
2021/01/15 10:54:21;;;;;;;8.43;5.62;;;;;;;9.06;39.85;99035.55;1789347;78;21182;-69
2021/01/15 10:56:51;;;;;;;8.08;5.92;;;;;;;9.18;39.81;99030.67;1787635;77;21370;-68
2021/01/15 10:59:20;;;;;;;8.43;5.80;;;;;;;9.30;39.82;99036.38;1791484;78;21153;-67
2021/01/15 11:01:49;;;;;;;6.92;5.33;;;;;;;9.44;39.73;99043.55;1804413;78;21598;-70
2021/01/15 11:04:18;;;;;;;8.63;5.33;;;;;;;9.57;39.66;99041.13;1798988;78;21179;-69
2021/01/15 11:06:53;;;;;;;7.72;5.10;;;;;;;9.74;39.60;99049.77;1800508;78;21550;-67
2021/01/15 11:09:23;;;;;;;8.15;5.60;;;;;;;9.91;39.54;99037.66;1815951;77;22162;-69
2021/01/15 11:11:52;;;;;;;7.22;5.05;;;;;;;10.09;39.39;99036.83;1802758;78;21200;-67
2021/01/15 11:14:20;;;;;;;6.72;5.20;;;;;;;10.29;39.27;99034.44;1735258;81;21658;-69
2021/01/15 11:16:47;;;;;;;9.05;5.78;;;;;;;10.45;39.09;99028.16;1768418;80;21160;-69
2021/01/15 11:19:14;;;;;;;8.03;5.78;;;;;;;10.55;38.93;99031.86;1777633;79;21222;-68
2021/01/15 11:21:41;;;;;;;6.72;5.30;;;;;;;10.60;38.84;99026.31;1738334;81;23730;-68
2021/01/15 11:24:11;;;;;;;7.45;5.67;;;;;;;10.65;38.68;99032.91;1780320;79;21146;-68
2021/01/15 11:26:39;;;;;;;7.45;5.10;;;;;;;10.73;38.59;99031.46;1735749;81;21168;-69
2021/01/15 11:29:08;;;;;;;7.03;5.03;;;;;;;10.84;38.50;99038.95;1753661;81;21157;-70
2021/01/15 11:31:36;;;;;;;6.03;4.92;;;;;;;10.94;38.40;99032.01;1783040;79;21213;-68
2021/01/15 11:34:03;;;;;;;7.40;5.65;;;;;;;11.04;38.24;99028.53;1753189;81;21366;-67
2021/01/15 11:36:31;;;;;;;6.22;4.87;;;;;;;11.14;38.15;99029.03;1782219;79;21138;-67
2021/01/15 11:39:09;;;;;;;5.80;4.40;;;;;;;11.24;38.04;99025.25;1731453;81;21579;-70
2021/01/15 11:41:37;;;;;;;7.17;4.83;;;;;;;11.32;37.90;99027.77;1781764;79;21178;-72
2021/01/15 11:44:08;;;;;;;6.67;5.03;;;;;;;11.38;37.80;99035.02;1745191;80;21224;-67
2021/01/15 11:46:35;;;;;;;7.35;5.45;;;;;;;11.44;37.71;99036.09;1786244;78;21852;-67
2021/01/15 11:49:04;;;;;;;6.53;5.17;;;;;;;11.46;37.64;99030.06;1777428;79;21166;-68
2021/01/15 11:51:31;;;;;;;6.30;4.83;;;;;;;11.46;37.58;99032.22;1753743;81;21404;-67
2021/01/15 11:53:58;;;;;;;7.00;5.17;;;;;;;11.46;37.56;99034.06;1780674;79;21209;-68
2021/01/15 11:56:26;;;;;;;6.90;5.20;;;;;;;11.42;37.62;99028.30;1774233;79;21488;-66
2021/01/15 11:58:54;;;;;;;6.45;5.05;;;;;;;11.38;37.63;99034.50;1770289;80;21884;-67